Time;durP1;ratioP1;P1;durP2;ratioP2;P2;SDS_P1;SDS_P2;PMS_P1;PMS_P2;Temp;Humidity;BMP_temperature;BMP_pressure;BME280_temperature;BME280_humidity;BME280_pressure;Samples;Min_cycle;Max_cycle;Signal;HPM_P1;HPM_P2
2020/12/09 00:01:12;;;;;;;5.45;2.80;;;103.00;1945.60;;;;;;5071242;28;20032;-67
2020/12/09 00:03:38;;;;;;;4.45;2.80;;;103.00;1971.20;;;;;;5072453;28;20073;-65
2020/12/09 00:06:04;;;;;;;4.25;2.85;;;103.00;1971.20;;;;;;5071947;28;20090;-65
2020/12/09 00:08:30;;;;;;;4.47;2.58;;;103.00;1971.20;;;;;;5071780;28;20025;-67
2020/12/09 00:10:56;;;;;;;5.88;2.70;;;102.90;1971.20;;;;;;5071654;28;20031;-62
2020/12/09 00:13:22;;;;;;;3.35;2.00;;;103.00;1945.60;;;;;;5071655;28;20024;-67
2020/12/09 00:15:47;;;;;;;4.72;2.63;;;103.00;1945.60;;;;;;5071926;28;20581;-61
2020/12/09 00:18:13;;;;;;;3.47;2.03;;;103.10;1920.00;;;;;;5070890;28;20039;-61
2020/12/09 00:20:39;;;;;;;2.60;1.73;;;103.10;1945.60;;;;;;5071848;28;20027;-73
2020/12/09 00:23:04;;;;;;;4.10;2.03;;;103.10;1945.60;;;;;;5071501;28;20650;-73
2020/12/09 00:25:30;;;;;;;4.25;2.28;;;103.10;1945.60;;;;;;5071640;28;20044;-66
2020/12/09 00:27:56;;;;;;;3.65;2.10;;;103.20;1920.00;;;;;;5071904;28;20032;-76
2020/12/09 00:30:22;;;;;;;3.17;2.08;;;103.20;1920.00;;;;;;5072287;28;20410;-75
2020/12/09 00:32:47;;;;;;;3.00;1.73;;;103.10;1945.60;;;;;;5071484;28;20075;-68
2020/12/09 00:35:13;;;;;;;2.65;1.60;;;103.10;1945.60;;;;;;5071769;28;20064;-69
2020/12/09 00:37:39;;;;;;;3.50;2.08;;;103.00;1945.60;;;;;;5071123;28;20029;-68
2020/12/09 00:40:06;;;;;;;3.75;1.90;;;103.10;1920.00;;;;;;5070960;28;20061;-71
2020/12/09 00:42:32;;;;;;;4.50;2.13;;;103.20;1920.00;;;;;;5068254;28;20032;-68
2020/12/09 00:44:58;;;;;;;2.42;1.60;;;103.10;1945.60;;;;;;5071758;28;20075;-82
2020/12/09 00:47:25;;;;;;;4.55;2.00;;;103.20;1920.00;;;;;;5071731;28;20532;-65
2020/12/09 00:52:34;;;;;;;2.65;1.75;;;103.10;1920.00;;;;;;5073157;28;20070;-71
2020/12/09 00:55:00;;;;;;;5.18;1.73;;;103.10;1945.60;;;;;;5072395;28;20032;-62
2020/12/09 00:57:26;;;;;;;3.90;2.08;;;103.10;1945.60;;;;;;5069055;28;20031;-63
2020/12/09 00:59:51;;;;;;;3.55;1.73;;;103.20;1920.00;;;;;;5071960;28;20040;-61
2020/12/09 01:02:18;;;;;;;3.17;1.33;;;103.20;1920.00;;;;;;5071093;28;20024;-62
2020/12/09 01:04:49;;;;;;;3.13;1.48;;;103.10;1920.00;;;;;;5071215;28;20053;-62
2020/12/09 01:07:20;;;;;;;2.67;1.65;;;103.20;1920.00;;;;;;5070208;28;20063;-62
2020/12/09 01:09:47;;;;;;;2.40;1.45;;;103.20;1920.00;;;;;;5070483;28;20036;-60
2020/12/09 01:12:13;;;;;;;2.75;1.50;;;103.10;1920.00;;;;;;5070337;28;20056;-63
2020/12/09 01:14:40;;;;;;;2.70;1.33;;;103.10;1920.00;;;;;;5071310;28;20028;-62
2020/12/09 01:17:06;;;;;;;2.40;1.63;;;103.10;1945.60;;;;;;5069817;28;20382;-60
2020/12/09 01:19:31;;;;;;;4.65;1.58;;;103.10;1945.60;;;;;;5070305;28;20031;-60
2020/12/09 01:21:57;;;;;;;2.75;1.38;;;103.20;1945.60;;;;;;5071991;28;20368;-61
2020/12/09 01:24:23;;;;;;;2.50;1.70;;;103.10;1945.60;;;;;;5072631;28;20021;-61
2020/12/09 01:26:49;;;;;;;2.97;1.48;;;103.10;1945.60;;;;;;5072238;28;20382;-68
2020/12/09 01:29:16;;;;;;;2.58;1.50;;;103.10;1945.60;;;;;;5072074;28;20029;-66
2020/12/09 01:31:42;;;;;;;3.22;1.65;;;103.20;1920.00;;;;;;5072729;28;20032;-67
2020/12/09 01:34:08;;;;;;;2.15;1.30;;;103.20;1920.00;;;;;;5072078;28;20025;-61
2020/12/09 01:36:33;;;;;;;1.92;1.20;;;103.20;1920.00;;;;;;5072479;28;20103;-66
2020/12/09 01:38:59;;;;;;;2.58;1.15;;;103.20;1920.00;;;;;;5071570;28;20119;-67
2020/12/09 01:41:25;;;;;;;3.10;1.75;;;103.10;1945.60;;;;;;5071650;28;20074;-67
2020/12/09 01:43:53;;;;;;;2.25;1.30;;;103.10;1920.00;;;;;;5067905;28;20094;-67
2020/12/09 01:46:26;;;;;;;2.33;1.33;;;103.10;1920.00;;;;;;5051193;28;20127;-66
2020/12/09 01:48:54;;;;;;;2.65;1.85;;;103.20;1920.00;;;;;;5069181;28;20029;-68
2020/12/09 01:51:23;;;;;;;1.85;1.58;;;103.20;1920.00;;;;;;5069709;28;20068;-69
2020/12/09 01:53:51;;;;;;;2.67;1.40;;;103.20;1920.00;;;;;;5072132;28;20020;-70
2020/12/09 01:56:16;;;;;;;2.30;1.40;;;103.30;1894.40;;;;;;5072014;28;20029;-70
2020/12/09 01:58:42;;;;;;;2.20;1.33;;;103.30;1894.40;;;;;;5071809;28;20020;-70
2020/12/09 02:01:08;;;;;;;2.30;1.42;;;103.20;1920.00;;;;;;5072411;28;20028;-69
2020/12/09 02:03:33;;;;;;;1.70;1.33;;;103.20;1894.40;;;;;;5072077;28;20474;-69
2020/12/09 02:05:59;;;;;;;2.90;1.60;;;103.10;1920.00;;;;;;5071630;28;20479;-71
2020/12/09 02:08:25;;;;;;;2.55;1.77;;;103.10;1920.00;;;;;;5071794;28;20017;-70
2020/12/09 02:11:04;;;;;;;1.88;1.60;;;103.10;1920.00;;;;;;5071876;28;20331;-63
2020/12/09 02:13:30;;;;;;;2.90;1.58;;;103.00;1945.60;;;;;;5069727;28;20019;-73
2020/12/09 02:16:00;;;;;;;2.10;1.50;;;103.00;1945.60;;;;;;5072264;28;20016;-71
2020/12/09 02:18:27;;;;;;;2.28;1.60;;;103.00;1920.00;;;;;;5072117;28;20013;-71
2020/12/09 02:20:53;;;;;;;3.13;1.70;;;103.00;1920.00;;;;;;5071802;28;20501;-73
2020/12/09 02:23:19;;;;;;;2.67;1.50;;;103.00;1920.00;;;;;;5075295;28;20051;-73
2020/12/09 02:25:45;;;;;;;2.17;1.35;;;103.10;1920.00;;;;;;5075659;28;20040;-64
2020/12/09 02:28:12;;;;;;;2.13;1.33;;;103.00;1920.00;;;;;;5057859;28;20127;-73
2020/12/09 02:30:37;;;;;;;2.50;1.58;;;103.00;1920.00;;;;;;5075535;28;20489;-71
2020/12/09 02:33:03;;;;;;;2.60;1.65;;;103.10;1894.40;;;;;;5075753;28;20024;-67
2020/12/09 02:35:29;;;;;;;1.80;1.40;;;103.10;1894.40;;;;;;5075976;28;20025;-66
2020/12/09 02:37:55;;;;;;;1.88;1.40;;;103.10;1920.00;;;;;;5075563;28;20104;-72
2020/12/09 02:40:21;;;;;;;3.58;1.30;;;103.10;1894.40;;;;;;5075783;28;20085;-69
2020/12/09 02:42:47;;;;;;;1.73;1.40;;;103.20;1894.40;;;;;;5075573;28;20025;-67
2020/12/09 02:45:13;;;;;;;1.88;1.23;;;103.10;1894.40;;;;;;5075693;28;20074;-74
2020/12/09 02:47:39;;;;;;;3.88;1.33;;;103.10;1894.40;;;;;;5075505;28;20103;-74
2020/12/09 02:50:05;;;;;;;1.80;1.30;;;103.10;1894.40;;;;;;5075302;28;20096;-72
2020/12/09 02:52:31;;;;;;;1.88;1.48;;;103.10;1894.40;;;;;;5075459;28;20025;-68
2020/12/09 02:54:57;;;;;;;2.00;1.40;;;103.00;1894.40;;;;;;5075158;28;20029;-74
2020/12/09 02:57:22;;;;;;;1.88;1.30;;;103.00;1920.00;;;;;;5075324;28;20556;-73
2020/12/09 02:59:48;;;;;;;5.00;1.52;;;103.00;1894.40;;;;;;5075532;28;20034;-74
2020/12/09 03:02:14;;;;;;;2.85;1.40;;;102.90;1894.40;;;;;;5075017;28;20029;-67
2020/12/09 03:04:39;;;;;;;2.50;1.45;;;102.90;1920.00;;;;;;5075037;28;20131;-74
2020/12/09 03:07:05;;;;;;;1.98;1.15;;;102.90;1920.00;;;;;;5074935;28;20070;-73
2020/12/09 03:09:31;;;;;;;2.05;0.90;;;102.90;1894.40;;;;;;5075085;28;20154;-72
2020/12/09 03:11:56;;;;;;;1.67;1.08;;;103.00;1894.40;;;;;;5074975;28;20474;-73
2020/12/09 03:14:22;;;;;;;2.28;1.25;;;102.90;1894.40;;;;;;5072814;28;20108;-72
2020/12/09 03:16:48;;;;;;;2.55;1.40;;;102.90;1894.40;;;;;;5074744;28;20029;-72
2020/12/09 03:19:14;;;;;;;6.63;1.27;;;102.90;1894.40;;;;;;5075089;28;20077;-74
2020/12/09 03:21:43;;;;;;;2.03;1.30;;;103.00;1894.40;;;;;;5074732;28;20035;-74
2020/12/09 03:24:09;;;;;;;;;;;102.90;1920.00;;;;;;5075346;28;20028;-72
2020/12/09 03:26:35;;;;;;;0.88;0.85;;;102.90;1920.00;;;;;;5074841;28;19919;-73
2020/12/09 03:29:00;;;;;;;2.33;1.00;;;102.80;1920.00;;;;;;5074787;28;20028;-72
2020/12/09 03:31:26;;;;;;;2.33;1.38;;;102.80;1920.00;;;;;;5074838;28;20036;-72
2020/12/09 03:33:52;;;;;;;2.20;1.27;;;103.00;1894.40;;;;;;5072323;28;20098;-72
2020/12/09 03:36:17;;;;;;;4.40;1.67;;;103.10;1894.40;;;;;;5074656;28;20032;-73
2020/12/09 03:38:43;;;;;;;2.20;1.50;;;103.20;1894.40;;;;;;5074584;28;20028;-70
2020/12/09 03:41:09;;;;;;;1.88;1.15;;;103.30;1868.80;;;;;;5074272;28;20036;-71
2020/12/09 03:43:35;;;;;;;1.83;1.10;;;103.20;1868.80;;;;;;5056636;28;20027;-73
2020/12/09 03:46:00;;;;;;;2.63;1.17;;;103.20;1868.80;;;;;;5074394;28;20036;-73
2020/12/09 03:48:26;;;;;;;3.10;1.30;;;103.20;1868.80;;;;;;5074570;28;20058;-71
2020/12/09 03:50:52;;;;;;;1.48;1.10;;;103.20;1868.80;;;;;;5074640;28;20474;-73
2020/12/09 03:53:17;;;;;;;1.50;1.13;;;103.30;1868.80;;;;;;5074516;28;20017;-73
2020/12/09 03:55:43;;;;;;;2.20;1.10;;;103.20;1843.20;;;;;;5074171;28;20024;-67
2020/12/09 03:58:09;;;;;;;2.97;1.10;;;103.30;1843.20;;;;;;5074278;28;20036;-74
2020/12/09 04:00:34;;;;;;;1.75;1.10;;;128.10;1843.20;;;;;;5073940;28;20099;-66
2020/12/09 04:03:00;;;;;;;1.58;1.08;;;128.10;1843.20;;;;;;5074097;28;20040;-73
2020/12/09 04:05:26;;;;;;;1.30;0.90;;;128.10;1843.20;;;;;;5055924;28;20049;-69
2020/12/09 04:07:52;;;;;;;2.28;1.25;;;128.20;1843.20;;;;;;5073965;28;20028;-73
2020/12/09 04:10:18;;;;;;;1.80;1.00;;;128.30;1817.60;;;;;;5074458;28;20033;-73
2020/12/09 04:12:44;;;;;;;1.83;1.05;;;128.20;1817.60;;;;;;5073638;28;20035;-73
2020/12/09 04:15:10;;;;;;;1.85;1.33;;;128.10;1843.20;;;;;;5074045;28;20024;-75
2020/12/09 04:17:36;;;;;;;2.15;1.60;;;128.20;1843.20;;;;;;5074206;28;20363;-73
2020/12/09 04:20:03;;;;;;;2.60;1.52;;;128.10;1843.20;;;;;;5074078;28;20029;-71
2020/12/09 04:22:29;;;;;;;2.15;1.60;;;103.30;1843.20;;;;;;5073745;28;20078;-64
2020/12/09 04:24:54;;;;;;;2.63;1.35;;;128.00;1868.80;;;;;;5073721;28;20033;-76
2020/12/09 04:27:20;;;;;;;2.25;1.40;;;128.00;1868.80;;;;;;5072230;28;20028;-69
2020/12/09 04:29:45;;;;;;;2.78;1.45;;;128.00;1868.80;;;;;;5073780;28;20020;-72
2020/12/09 04:32:11;;;;;;;1.92;1.10;;;103.30;1843.20;;;;;;5073742;28;20494;-73
2020/12/09 04:34:37;;;;;;;2.38;1.67;;;103.30;1843.20;;;;;;5073874;28;20428;-74
2020/12/09 04:37:03;;;;;;;2.15;1.20;;;103.20;1843.20;;;;;;5073088;28;20028;-75
2020/12/09 04:39:29;;;;;;;2.17;1.65;;;103.10;1868.80;;;;;;5073607;28;20364;-73
2020/12/09 04:41:54;;;;;;;1.20;0.90;;;103.10;1868.80;;;;;;5073072;28;20031;-74
2020/12/09 04:44:21;;;;;;;1.85;0.85;;;103.10;1843.20;;;;;;5072747;28;20343;-72
2020/12/09 04:46:49;;;;;;;1.30;0.93;;;103.10;1843.20;;;;;;5072841;28;20058;-74
2020/12/09 04:49:23;;;;;;;1.00;0.93;;;103.10;1843.20;;;;;;5073395;28;20028;-73
2020/12/09 04:52:26;;;;;;;1.40;0.98;;;103.10;1843.20;;;;;;5073190;28;20090;-75
2020/12/09 04:55:03;;;;;;;3.22;1.20;;;103.10;1843.20;;;;;;5059641;28;20028;-76
2020/12/09 04:57:38;;;;;;;1.67;1.10;;;103.10;1843.20;;;;;;5072838;28;20017;-73
2020/12/09 05:00:09;;;;;;;1.65;0.98;;;103.10;1843.20;;;;;;5073147;28;20060;-72
2020/12/09 05:02:44;;;;;;;2.20;1.08;;;103.10;1843.20;;;;;;5072998;28;20090;-74
2020/12/09 05:05:18;;;;;;;1.38;1.10;;;103.00;1843.20;;;;;;5059672;28;20044;-73
2020/12/09 05:07:53;;;;;;;1.30;1.20;;;103.00;1868.80;;;;;;5073164;28;20042;-66
2020/12/09 05:10:20;;;;;;;1.70;1.13;;;103.00;1868.80;;;;;;5060134;28;20450;-72
2020/12/09 05:12:49;;;;;;;2.08;1.30;;;103.00;1868.80;;;;;;5072582;28;20123;-75
2020/12/09 05:15:19;;;;;;;2.40;1.17;;;103.00;1868.80;;;;;;5072833;28;20083;-72
2020/12/09 05:18:04;;;;;;;2.13;1.30;;;103.00;1868.80;;;;;;5072784;28;20027;-64
2020/12/09 05:20:36;;;;;;;2.42;1.45;;;103.00;1843.20;;;;;;5060031;28;20029;-71
2020/12/09 05:23:09;;;;;;;2.50;1.38;;;103.00;1868.80;;;;;;5072840;28;20032;-70
2020/12/09 05:25:36;;;;;;;2.10;1.33;;;102.90;1868.80;;;;;;5059289;28;20063;-70
2020/12/09 05:28:03;;;;;;;1.42;1.15;;;102.90;1868.80;;;;;;5072694;28;20482;-76
2020/12/09 05:30:51;;;;;;;2.60;1.35;;;103.00;1868.80;;;;;;5072707;28;20024;-70
2020/12/09 05:33:29;;;;;;;3.22;1.40;;;102.90;1868.80;;;;;;5073032;28;20090;-76
2020/12/09 05:35:56;;;;;;;2.08;1.48;;;102.90;1894.40;;;;;;5059480;28;20029;-76
2020/12/09 05:38:23;;;;;;;3.25;1.50;;;103.00;1868.80;;;;;;5072806;28;20035;-77
2020/12/09 05:40:48;;;;;;;3.20;1.90;;;102.80;1894.40;;;;;;5072296;28;20017;-78
2020/12/09 05:43:15;;;;;;;7.97;2.53;;;102.80;1894.40;;;;;;5072526;28;20055;-79
2020/12/09 05:45:41;;;;;;;4.05;1.90;;;102.90;1894.40;;;;;;5072351;28;20023;-73
2020/12/09 05:48:14;;;;;;;3.03;1.70;;;103.00;1868.80;;;;;;5072515;28;20024;-78
2020/12/09 05:50:49;;;;;;;4.90;1.88;;;103.00;1868.80;;;;;;5072452;28;20028;-75
2020/12/09 05:53:18;;;;;;;2.90;1.88;;;103.00;1868.80;;;;;;5072706;28;20028;-77
2020/12/09 05:55:44;;;;;;;2.47;1.65;;;103.00;1868.80;;;;;;5072267;28;20077;-73
2020/12/09 05:58:24;;;;;;;2.95;1.70;;;102.80;1894.40;;;;;;5076700;28;20033;-76
2020/12/09 06:01:14;;;;;;;3.65;1.77;;;102.90;1894.40;;;;;;5076416;28;20025;-76
2020/12/09 06:03:44;;;;;;;3.70;2.13;;;102.90;1894.40;;;;;;5014918;28;20061;-76
2020/12/09 06:06:14;;;;;;;4.10;2.20;;;102.90;1894.40;;;;;;5013925;28;20056;-76
2020/12/09 06:08:47;;;;;;;4.05;2.20;;;102.90;1894.40;;;;;;5014709;28;20038;-74
2020/12/09 06:11:15;;;;;;;2.88;2.00;;;102.90;1894.40;;;;;;5014489;28;20052;-75
2020/12/09 06:13:41;;;;;;;2.80;2.05;;;102.90;1920.00;;;;;;5014635;28;20040;-76
2020/12/09 06:16:09;;;;;;;3.45;2.10;;;102.90;1920.00;;;;;;5013252;28;20022;-77
2020/12/09 06:18:36;;;;;;;3.47;2.13;;;102.90;1894.40;;;;;;5005925;28;20037;-76
2020/12/09 06:21:03;;;;;;;3.45;1.95;;;102.90;1894.40;;;;;;5014216;28;20117;-66
2020/12/09 06:23:29;;;;;;;3.28;2.13;;;103.00;1894.40;;;;;;5014207;28;20177;-76
2020/12/09 06:25:56;;;;;;;3.47;2.03;;;102.90;1920.00;;;;;;5013899;28;20045;-75
2020/12/09 06:28:23;;;;;;;3.85;2.30;;;102.90;1920.00;;;;;;5013997;28;20030;-76
2020/12/09 06:30:50;;;;;;;4.68;2.10;;;102.80;1920.00;;;;;;5013784;28;20022;-72
2020/12/09 06:33:36;;;;;;;4.18;3.03;;;102.90;1920.00;;;;;;5014052;28;20041;-75
2020/12/09 06:36:27;;;;;;;4.20;2.50;;;102.90;1894.40;;;;;;5013653;28;20044;-70
2020/12/09 06:39:07;;;;;;;4.05;2.50;;;102.90;1920.00;;;;;;5013840;28;20038;-76
2020/12/09 06:41:34;;;;;;;7.00;2.85;;;103.00;1894.40;;;;;;5058335;28;20071;-75
2020/12/09 06:44:06;;;;;;;4.78;2.40;;;103.20;1894.40;;;;;;5075863;28;20059;-76
2020/12/09 06:46:44;;;;;;;4.20;2.00;;;128.00;1894.40;;;;;;5067428;28;20482;-73
2020/12/09 06:49:32;;;;;;;8.45;2.83;;;103.30;1868.80;;;;;;5075354;28;20428;-72
2020/12/09 06:52:10;;;;;;;4.07;2.22;;;103.30;1868.80;;;;;;5064511;28;20437;-73
2020/12/09 06:54:38;;;;;;;4.18;2.53;;;128.00;1868.80;;;;;;5075221;28;20031;-73
2020/12/09 06:57:27;;;;;;;8.77;2.50;;;128.10;1868.80;;;;;;5075164;28;20024;-72
2020/12/09 07:00:18;;;;;;;3.63;2.30;;;128.20;1868.80;;;;;;5075508;28;20074;-73
2020/12/09 07:02:47;;;;;;;3.60;2.30;;;128.10;1868.80;;;;;;5074646;28;20012;-66
2020/12/09 07:05:15;;;;;;;3.03;2.03;;;128.30;1843.20;;;;;;5072197;28;20053;-65
2020/12/09 07:07:46;;;;;;;3.47;2.27;;;128.30;1843.20;;;;;;5072944;28;20045;-63
2020/12/09 07:10:19;;;;;;;3.17;2.40;;;128.30;1843.20;;;;;;5073466;28;20046;-68
2020/12/09 07:12:58;;;;;;;6.20;2.40;;;128.20;1843.20;;;;;;5072207;28;20025;-70
2020/12/09 07:15:24;;;;;;;5.60;2.33;;;128.40;1817.60;;;;;;5073350;28;20529;-66
2020/12/09 07:17:51;;;;;;;6.93;2.97;;;128.40;1817.60;;;;;;5072946;28;20053;-69
2020/12/09 07:20:17;;;;;;;6.82;2.58;;;128.40;1817.60;;;;;;5072962;28;20082;-68
2020/12/09 07:22:46;;;;;;;4.85;2.28;;;128.30;1817.60;;;;;;5072539;28;20025;-67
2020/12/09 07:25:12;;;;;;;4.88;3.08;;;128.30;1843.20;;;;;;5072645;28;20064;-72
2020/12/09 07:27:38;;;;;;;6.53;2.78;;;128.40;1817.60;;;;;;5072419;28;20541;-65
2020/12/09 07:30:09;;;;;;;8.45;3.08;;;128.40;1817.60;;;;;;5072978;28;20055;-70
2020/12/09 07:32:36;;;;;;;6.95;2.85;;;128.40;1817.60;;;;;;5072208;28;20024;-70
2020/12/09 07:35:06;;;;;;;6.15;2.67;;;128.40;1817.60;;;;;;5071511;28;20047;-69
2020/12/09 07:37:37;;;;;;;6.28;3.20;;;128.50;1817.60;;;;;;5072199;28;20047;-64
2020/12/09 07:40:14;;;;;;;7.68;4.18;;;128.60;1817.60;;;;;;5072920;28;20482;-64
2020/12/09 07:42:40;;;;;;;7.28;2.92;;;128.50;1817.60;;;;;;5070959;28;20059;-71
2020/12/09 07:45:17;;;;;;;6.95;3.45;;;128.60;1817.60;;;;;;5072193;28;20048;-65
2020/12/09 07:47:44;;;;;;;7.82;3.50;;;128.80;1792.00;;;;;;5071888;28;20036;-68
2020/12/09 07:50:10;;;;;;;5.65;3.20;;;128.70;1817.60;;;;;;5070313;28;20016;-66
2020/12/09 07:52:41;;;;;;;6.75;3.50;;;128.70;1817.60;;;;;;5071412;28;20025;-64
2020/12/09 07:55:12;;;;;;;6.32;3.58;;;128.80;1817.60;;;;;;5071865;28;20063;-67
2020/12/09 07:57:39;;;;;;;7.15;3.60;;;128.80;1817.60;;;;;;5071195;28;20029;-62
2020/12/09 08:00:13;;;;;;;5.22;3.53;;;128.70;1843.20;;;;;;5070789;28;20017;-64
2020/12/09 08:02:41;;;;;;;6.32;3.17;;;128.60;1868.80;;;;;;5070816;28;20046;-63
2020/12/09 08:05:22;;;;;;;4.80;3.03;;;128.70;1843.20;;;;;;5070233;28;20468;-66
2020/12/09 08:07:54;;;;;;;7.50;3.60;;;128.70;1843.20;;;;;;5068221;28;20119;-64
2020/12/09 08:10:23;;;;;;;6.40;3.45;;;128.80;1843.20;;;;;;5071930;28;20086;-63
2020/12/09 08:12:49;;;;;;;6.60;3.58;;;128.70;1843.20;;;;;;5068561;28;20031;-63
2020/12/09 08:15:15;;;;;;;5.75;3.50;;;128.80;1843.20;;;;;;5069003;28;20111;-63
2020/12/09 08:17:47;;;;;;;5.38;2.72;;;128.80;1843.20;;;;;;5068911;28;20090;-61
2020/12/09 08:20:14;;;;;;;6.57;3.83;;;128.80;1843.20;;;;;;5071125;28;20039;-60
2020/12/09 08:23:00;;;;;;;6.57;2.92;;;128.80;1868.80;;;;;;5072116;28;20083;-59
2020/12/09 08:25:31;;;;;;;5.05;3.00;;;128.80;1843.20;;;;;;5071728;28;20043;-60
2020/12/09 08:28:05;;;;;;;7.57;4.32;;;128.70;1868.80;;;;;;5070828;28;20103;-60
2020/12/09 08:30:31;;;;;;;9.23;4.57;;;128.80;1868.80;;;;;;5071733;28;20025;-63
2020/12/09 08:33:14;;;;;;;7.90;3.75;;;153.60;1868.80;;;;;;5071202;28;20056;-60
2020/12/09 08:35:47;;;;;;;6.88;3.63;;;128.90;1868.80;;;;;;5071725;28;20028;-60
2020/12/09 08:38:37;;;;;;;10.00;4.30;;;128.80;1868.80;;;;;;5071482;28;20047;-62
2020/12/09 08:41:05;;;;;;;8.00;4.03;;;153.60;1868.80;;;;;;5070078;28;20017;-60
2020/12/09 08:43:34;;;;;;;8.30;4.23;;;153.60;1894.40;;;;;;5070515;28;20027;-60
2020/12/09 08:46:03;;;;;;;8.98;4.65;;;128.90;1868.80;;;;;;5071043;28;20285;-61
2020/12/09 08:48:30;;;;;;;6.80;4.07;;;153.70;1868.80;;;;;;5071525;28;20029;-62
2020/12/09 08:50:55;;;;;;;15.52;5.53;;;153.70;1894.40;;;;;;5071206;28;20463;-61
2020/12/09 08:53:21;;;;;;;7.88;4.68;;;153.80;1868.80;;;;;;5071606;28;20094;-60
2020/12/09 08:55:48;;;;;;;8.02;4.07;;;153.80;1868.80;;;;;;5070958;28;20020;-60
2020/12/09 08:58:15;;;;;;;7.88;4.10;;;154.00;1843.20;;;;;;5071371;28;20063;-60
2020/12/09 09:00:41;;;;;;;6.72;3.97;;;154.00;1843.20;;;;;;5071321;28;20020;-59
2020/12/09 09:03:12;;;;;;;7.07;3.78;;;154.10;1817.60;;;;;;5070963;28;20497;-61
2020/12/09 09:05:40;;;;;;;6.38;3.65;;;154.00;1843.20;;;;;;5071010;28;20513;-65
2020/12/09 09:08:10;;;;;;;6.57;3.33;;;154.00;1843.20;;;;;;5071004;28;20048;-67
2020/12/09 09:10:36;;;;;;;4.20;3.05;;;154.10;1817.60;;;;;;5069488;28;20028;-71
2020/12/09 09:13:03;;;;;;;5.10;2.83;;;154.20;1792.00;;;;;;5070850;28;20024;-69
2020/12/09 09:15:29;;;;;;;4.80;2.72;;;154.20;1792.00;;;;;;5070449;28;20024;-64
2020/12/09 09:17:54;;;;;;;4.35;2.67;;;154.20;1766.40;;;;;;5070846;28;20025;-59
2020/12/09 09:20:20;;;;;;;5.05;2.83;;;154.30;1766.40;;;;;;5071354;28;20081;-64
2020/12/09 09:22:46;;;;;;;5.72;3.20;;;154.40;1740.80;;;;;;5070910;28;20036;-70
2020/12/09 09:25:12;;;;;;;5.55;2.80;;;154.50;1740.80;;;;;;5069957;28;20415;-71
2020/12/09 09:27:38;;;;;;;7.93;3.20;;;179.30;1715.20;;;;;;5069866;28;20146;-67
2020/12/09 09:30:06;;;;;;;4.50;2.95;;;179.30;1715.20;;;;;;5069653;28;20497;-67
2020/12/09 09:32:32;;;;;;;5.85;3.38;;;179.30;1715.20;;;;;;5070808;28;20064;-76
2020/12/09 09:34:58;;;;;;;6.00;3.60;;;179.20;1689.60;;;;;;5070006;28;20032;-69
2020/12/09 09:37:24;;;;;;;4.47;2.88;;;179.40;1689.60;;;;;;5068688;28;20089;-62
2020/12/09 09:39:51;;;;;;;3.78;2.88;;;179.30;1689.60;;;;;;5070297;28;20043;-62
2020/12/09 09:42:18;;;;;;;6.57;3.00;;;179.50;1664.00;;;;;;5070228;28;20028;-66
2020/12/09 09:44:45;;;;;;;3.60;2.60;;;179.50;1664.00;;;;;;5068105;28;20024;-72
2020/12/09 09:47:11;;;;;;;8.43;3.10;;;179.60;1664.00;;;;;;5070395;28;20086;-65
2020/12/09 09:49:37;;;;;;;5.07;3.10;;;179.60;1638.40;;;;;;5070534;28;20013;-72
2020/12/09 09:52:03;;;;;;;4.80;3.10;;;179.80;1638.40;;;;;;5070825;28;20111;-73
2020/12/09 09:54:28;;;;;;;7.78;3.90;;;179.70;1638.40;;;;;;5070803;28;20024;-69
2020/12/09 09:56:54;;;;;;;8.15;3.60;;;179.60;1638.40;;;;;;5070299;28;20025;-75
2020/12/09 09:59:20;;;;;;;6.80;3.65;;;179.60;1664.00;;;;;;5069680;28;20028;-72
2020/12/09 10:01:46;;;;;;;7.38;3.40;;;179.50;1664.00;;;;;;5066620;28;20478;-74
2020/12/09 10:04:12;;;;;;;6.60;3.55;;;179.40;1689.60;;;;;;5069069;28;20029;-71
2020/12/09 10:06:37;;;;;;;7.22;3.20;;;179.50;1664.00;;;;;;5051773;28;20545;-66
2020/12/09 10:09:05;;;;;;;4.13;2.78;;;179.50;1664.00;;;;;;5051952;28;20056;-70
2020/12/09 10:11:34;;;;;;;5.10;2.92;;;179.60;1664.00;;;;;;5070394;28;20013;-71
2020/12/09 10:14:00;;;;;;;4.55;2.58;;;179.60;1638.40;;;;;;5070356;28;20013;-64
2020/12/09 10:16:27;;;;;;;3.55;2.45;;;179.60;1638.40;;;;;;5070736;28;20146;-72
2020/12/09 10:18:54;;;;;;;3.97;2.13;;;179.70;1612.80;;;;;;5069184;28;20024;-65
2020/12/09 10:21:27;;;;;;;5.25;3.00;;;179.70;1638.40;;;;;;5069572;28;20029;-65
2020/12/09 10:23:53;;;;;;;4.70;2.25;;;179.70;1612.80;;;;;;5069249;28;20045;-70
2020/12/09 10:26:25;;;;;;;4.88;2.70;;;179.60;1638.40;;;;;;5065632;28;20040;-65
2020/12/09 10:28:51;;;;;;;4.00;2.55;;;179.60;1638.40;;;;;;5069401;28;20501;-66
2020/12/09 10:31:16;;;;;;;5.78;2.15;;;179.60;1638.40;;;;;;5069257;28;20339;-70
2020/12/09 10:33:42;;;;;;;3.50;1.98;;;179.40;1638.40;;;;;;5069420;28;20047;-62
2020/12/09 10:36:08;;;;;;;6.10;2.30;;;179.40;1638.40;;;;;;5069661;28;20129;-66
2020/12/09 10:38:33;;;;;;;4.07;2.42;;;179.40;1638.40;;;;;;5069826;28;20028;-62
2020/12/09 10:41:00;;;;;;;6.00;2.40;;;179.40;1638.40;;;;;;5069814;28;20034;-72
2020/12/09 10:43:25;;;;;;;4.93;2.78;;;179.40;1638.40;;;;;;5070965;28;20040;-72
2020/12/09 10:45:51;;;;;;;5.57;2.88;;;179.40;1638.40;;;;;;5073375;28;20032;-68
2020/12/09 10:48:17;;;;;;;5.63;3.00;;;179.40;1664.00;;;;;;5072258;28;20028;-69
2020/12/09 10:50:43;;;;;;;6.68;2.97;;;179.60;1638.40;;;;;;5073325;28;20019;-77
2020/12/09 10:53:09;;;;;;;4.85;2.70;;;179.50;1689.60;;;;;;5073656;28;20040;-69
2020/12/09 10:55:36;;;;;;;7.00;3.88;;;179.60;1715.20;;;;;;5073285;28;20040;-65
2020/12/09 10:58:02;;;;;;;3.17;2.35;;;180.00;1689.60;;;;;;5072358;28;20032;-67
2020/12/09 11:00:28;;;;;;;3.65;2.38;;;204.90;1664.00;;;;;;5072534;28;20048;-66
2020/12/09 11:02:54;;;;;;;7.75;4.07;;;205.00;1638.40;;;;;;5071430;28;20064;-73
2020/12/09 11:05:19;;;;;;;4.43;2.58;;;204.90;1638.40;;;;;;5074047;28;20071;-67
2020/12/09 11:07:45;;;;;;;4.25;2.40;;;204.80;1638.40;;;;;;5071782;28;20514;-75
2020/12/09 11:10:11;;;;;;;6.00;2.60;;;204.80;1612.80;;;;;;5070164;28;20040;-78
2020/12/09 11:12:37;;;;;;;6.15;3.00;;;204.80;1638.40;;;;;;5071993;28;20020;-65
2020/12/09 11:15:03;;;;;;;4.25;2.45;;;180.00;1638.40;;;;;;5055187;28;20054;-71
2020/12/09 11:17:29;;;;;;;5.65;2.67;;;180.00;1612.80;;;;;;5073725;28;20090;-70
2020/12/09 11:19:55;;;;;;;3.95;2.47;;;179.90;1638.40;;;;;;5071390;28;20020;-74
2020/12/09 11:22:21;;;;;;;2.90;2.22;;;179.90;1638.40;;;;;;5070879;28;20021;-72
2020/12/09 11:24:47;;;;;;;4.80;2.97;;;179.80;1638.40;;;;;;5072772;28;20520;-70
2020/12/09 11:27:13;;;;;;;4.95;2.60;;;179.70;1638.40;;;;;;5071729;28;20454;-74
2020/12/09 11:29:39;;;;;;;4.25;2.55;;;179.80;1638.40;;;;;;5072375;28;20882;-67
2020/12/09 11:32:05;;;;;;;4.50;2.75;;;179.90;1612.80;;;;;;5072978;28;20033;-73
2020/12/09 11:34:32;;;;;;;5.60;3.10;;;204.80;1587.20;;;;;;5071660;28;20029;-64
2020/12/09 11:37:02;;;;;;;7.70;3.97;;;205.00;1587.20;;;;;;5072475;28;20037;-67
2020/12/09 11:39:28;;;;;;;4.57;3.00;;;205.20;1561.60;;;;;;5072049;28;20112;-70
2020/12/09 11:42:00;;;;;;;8.43;2.63;;;205.60;1536.00;;;;;;5072151;28;20103;-62
2020/12/09 11:44:26;;;;;;;4.30;2.50;;;205.60;1510.40;;;;;;5071904;28;20024;-64
2020/12/09 11:46:51;;;;;;;4.57;2.67;;;205.40;1510.40;;;;;;5072421;28;20066;-67
2020/12/09 11:49:18;;;;;;;4.95;2.40;;;205.40;1510.40;;;;;;5070979;28;20028;-71
2020/12/09 11:51:43;;;;;;;4.63;2.63;;;205.20;1536.00;;;;;;5071745;28;20086;-69
2020/12/09 11:54:09;;;;;;;4.72;2.30;;;205.30;1510.40;;;;;;5070151;28;20048;-70
2020/12/09 11:56:35;;;;;;;4.45;2.63;;;205.20;1510.40;;;;;;5072089;28;20451;-62
2020/12/09 11:59:01;;;;;;;4.03;2.58;;;205.10;1536.00;;;;;;5072414;28;20115;-61
2020/12/09 12:01:26;;;;;;;5.35;2.78;;;205.10;1510.40;;;;;;5072024;28;20032;-70
2020/12/09 12:03:52;;;;;;;4.60;2.85;;;205.10;1536.00;;;;;;5070712;28;20077;-69
2020/12/09 12:06:24;;;;;;;6.95;3.33;;;205.10;1536.00;;;;;;5071273;28;20079;-65
2020/12/09 12:08:53;;;;;;;5.57;3.50;;;205.20;1536.00;;;;;;5069882;28;20451;-70
2020/12/09 12:11:20;;;;;;;8.70;4.40;;;205.10;1587.20;;;;;;5072327;28;20096;-74
2020/12/09 12:13:46;;;;;;;7.53;4.10;;;205.10;1587.20;;;;;;5071905;28;20021;-68
2020/12/09 12:16:16;;;;;;;8.27;4.18;;;205.00;1612.80;;;;;;5070949;28;20016;-61
2020/12/09 12:18:43;;;;;;;7.45;3.92;;;205.00;1612.80;;;;;;5070588;28;20028;-66
2020/12/09 12:21:14;;;;;;;7.28;4.35;;;205.10;1587.20;;;;;;5080630;28;20024;-76
2020/12/09 12:23:40;;;;;;;7.78;4.13;;;204.90;1612.80;;;;;;5071914;28;20035;-67
2020/12/09 12:26:06;;;;;;;5.75;3.38;;;204.90;1587.20;;;;;;5071319;28;20116;-74